sensor_id;sensor_type;location;lat;lon;timestamp;pressure;altitude;pressure_sealevel;temperature;humidity
66486;BME280;53303;47.476;8.084;2022-08-16T00:01:16;95936.88;;;23.52;48.05
66486;BME280;53303;47.476;8.084;2022-08-16T00:03:42;95935.59;;;23.53;47.95
66486;BME280;53303;47.476;8.084;2022-08-16T00:06:08;95935.13;;;23.49;47.90
66486;BME280;53303;47.476;8.084;2022-08-16T00:08:33;95939.94;;;23.48;47.85
66486;BME280;53303;47.476;8.084;2022-08-16T00:10:59;95939.47;;;23.44;47.98
66486;BME280;53303;47.476;8.084;2022-08-16T00:13:24;95939.69;;;23.46;47.63
66486;BME280;53303;47.476;8.084;2022-08-16T00:15:50;95944.50;;;23.46;47.68
66486;BME280;53303;47.476;8.084;2022-08-16T00:18:17;95945.78;;;23.45;47.42
66486;BME280;53303;47.476;8.084;2022-08-16T00:20:44;95951.63;;;23.41;47.71
66486;BME280;53303;47.476;8.084;2022-08-16T00:23:12;95946.84;;;23.36;47.57
66486;BME280;53303;47.476;8.084;2022-08-16T00:25:38;95949.41;;;23.34;47.72
66486;BME280;53303;47.476;8.084;2022-08-16T00:28:08;95952.94;;;23.34;47.85
66486;BME280;53303;47.476;8.084;2022-08-16T00:30:34;95965.84;;;23.37;47.71
66486;BME280;53303;47.476;8.084;2022-08-16T00:33:00;95960.28;;;23.37;47.62
66486;BME280;53303;47.476;8.084;2022-08-16T00:35:29;95954.22;;;23.33;47.50
66486;BME280;53303;47.476;8.084;2022-08-16T00:37:55;95950.44;;;23.31;47.69
66486;BME280;53303;47.476;8.084;2022-08-16T00:40:37;95940.31;;;23.28;47.74
66486;BME280;53303;47.476;8.084;2022-08-16T00:43:10;95961.28;;;23.34;47.50
66486;BME280;53303;47.476;8.084;2022-08-16T00:46:22;95959.59;;;23.26;47.67
66486;BME280;53303;47.476;8.084;2022-08-16T00:48:53;95965.94;;;23.26;47.62
66486;BME280;53303;47.476;8.084;2022-08-16T00:51:23;95957.56;;;23.26;47.49
66486;BME280;53303;47.476;8.084;2022-08-16T00:53:53;95945.47;;;23.18;47.52
66486;BME280;53303;47.476;8.084;2022-08-16T00:56:26;95956.09;;;23.19;47.56
66486;BME280;53303;47.476;8.084;2022-08-16T00:58:52;95960.63;;;23.23;47.56
66486;BME280;53303;47.476;8.084;2022-08-16T01:01:18;95960.63;;;23.23;47.63
66486;BME280;53303;47.476;8.084;2022-08-16T01:03:47;95956.31;;;23.22;47.49
66486;BME280;53303;47.476;8.084;2022-08-16T01:06:15;95948.72;;;23.22;47.55
66486;BME280;53303;47.476;8.084;2022-08-16T01:08:44;95955.06;;;23.23;47.56
66486;BME280;53303;47.476;8.084;2022-08-16T01:11:12;95949.22;;;23.21;47.44
66486;BME280;53303;47.476;8.084;2022-08-16T01:13:39;95955.81;;;23.23;47.62
66486;BME280;53303;47.476;8.084;2022-08-16T01:16:16;95954.81;;;23.21;47.47
66486;BME280;53303;47.476;8.084;2022-08-16T01:18:46;95954.81;;;23.21;47.53
66486;BME280;53303;47.476;8.084;2022-08-16T01:24:05;95950.03;;;23.15;47.60
66486;BME280;53303;47.476;8.084;2022-08-16T01:26:32;95954.84;;;23.15;47.59
66486;BME280;53303;47.476;8.084;2022-08-16T01:29:03;95951.06;;;23.12;47.68
66486;BME280;53303;47.476;8.084;2022-08-16T01:31:30;95954.66;;;23.07;47.46
66486;BME280;53303;47.476;8.084;2022-08-16T01:33:59;95948.81;;;23.11;47.66
66486;BME280;53303;47.476;8.084;2022-08-16T01:36:24;95958.41;;;23.10;47.51
66486;BME280;53303;47.476;8.084;2022-08-16T01:38:50;95954.66;;;23.07;47.51
66486;BME280;53303;47.476;8.084;2022-08-16T01:41:22;95949.59;;;23.06;47.50
66486;BME280;53303;47.476;8.084;2022-08-16T01:43:48;95957.69;;;23.04;47.66
66486;BME280;53303;47.476;8.084;2022-08-16T01:48:55;95957.69;;;23.04;47.58
66486;BME280;53303;47.476;8.084;2022-08-16T01:51:22;95960.47;;;23.04;47.57
66486;BME280;53303;47.476;8.084;2022-08-16T01:53:52;95958.94;;;23.03;47.47
66486;BME280;53303;47.476;8.084;2022-08-16T01:56:19;95968.31;;;23.05;47.40
66486;BME280;53303;47.476;8.084;2022-08-16T01:58:45;95965.00;;;23.01;47.34
66486;BME280;53303;47.476;8.084;2022-08-16T02:01:14;95964.78;;;22.99;47.49
66486;BME280;53303;47.476;8.084;2022-08-16T02:03:41;95958.22;;;22.96;47.29
66486;BME280;53303;47.476;8.084;2022-08-16T02:06:07;95964.25;;;23.00;47.45
66486;BME280;53303;47.476;8.084;2022-08-16T02:08:33;95961.47;;;23.00;47.27
66486;BME280;53303;47.476;8.084;2022-08-16T02:10:59;95966.06;;;22.98;47.36
66486;BME280;53303;47.476;8.084;2022-08-16T02:13:25;95958.22;;;22.96;47.12
66486;BME280;53303;47.476;8.084;2022-08-16T02:15:51;95951.13;;;22.95;47.19
66486;BME280;53303;47.476;8.084;2022-08-16T02:18:17;95953.16;;;22.95;47.24
66486;BME280;53303;47.476;8.084;2022-08-16T02:20:46;95951.16;;;22.90;47.26
66486;BME280;53303;47.476;8.084;2022-08-16T02:23:14;95944.59;;;22.93;47.18
66486;BME280;53303;47.476;8.084;2022-08-16T02:25:40;95953.44;;;22.91;47.12
66486;BME280;53303;47.476;8.084;2022-08-16T02:28:06;95947.88;;;22.91;47.04
66486;BME280;53303;47.476;8.084;2022-08-16T02:30:34;95954.69;;;22.90;47.21
66486;BME280;53303;47.476;8.084;2022-08-16T02:32:59;95951.69;;;22.88;47.17
66486;BME280;53303;47.476;8.084;2022-08-16T02:35:26;95945.38;;;22.88;47.17
66486;BME280;53303;47.476;8.084;2022-08-16T02:37:52;95955.22;;;22.89;47.46
66486;BME280;53303;47.476;8.084;2022-08-16T02:40:18;95948.66;;;22.86;47.00
66486;BME280;53303;47.476;8.084;2022-08-16T02:42:46;95939.84;;;22.82;47.02
66486;BME280;53303;47.476;8.084;2022-08-16T02:45:12;95955.47;;;22.85;47.13
66486;BME280;53303;47.476;8.084;2022-08-16T02:47:38;95952.47;;;22.83;46.98
66486;BME280;53303;47.476;8.084;2022-08-16T02:50:05;95936.31;;;22.76;47.29
66486;BME280;53303;47.476;8.084;2022-08-16T02:52:34;95935.28;;;22.79;47.33
66486;BME280;53303;47.476;8.084;2022-08-16T02:55:00;95941.59;;;22.79;46.92
66486;BME280;53303;47.476;8.084;2022-08-16T02:57:31;95938.34;;;22.75;47.10
66486;BME280;53303;47.476;8.084;2022-08-16T02:59:57;95947.69;;;22.78;47.17
66486;BME280;53303;47.476;8.084;2022-08-16T03:02:24;95939.09;;;22.76;46.96
66486;BME280;53303;47.476;8.084;2022-08-16T03:04:50;95931.25;;;22.74;47.07
66486;BME280;53303;47.476;8.084;2022-08-16T03:07:15;95925.72;;;22.69;47.20
66486;BME280;53303;47.476;8.084;2022-08-16T03:09:40;95923.44;;;22.67;47.20
66486;BME280;53303;47.476;8.084;2022-08-16T03:12:06;95906.31;;;22.57;47.07
66486;BME280;53303;47.476;8.084;2022-08-16T03:14:32;95934.56;;;22.73;47.21
66486;BME280;53303;47.476;8.084;2022-08-16T03:16:58;95929.75;;;22.73;47.18
66486;BME280;53303;47.476;8.084;2022-08-16T03:19:31;95922.66;;;22.72;46.92
66486;BME280;53303;47.476;8.084;2022-08-16T03:21:57;95923.72;;;22.69;47.12
66486;BME280;53303;47.476;8.084;2022-08-16T03:24:22;95918.16;;;22.69;47.08
66486;BME280;53303;47.476;8.084;2022-08-16T03:26:48;95914.13;;;22.65;47.10
66486;BME280;53303;47.476;8.084;2022-08-16T03:29:14;95903.06;;;22.53;46.88
66486;BME280;53303;47.476;8.084;2022-08-16T03:31:39;95917.69;;;22.59;47.06
66486;BME280;53303;47.476;8.084;2022-08-16T03:34:06;95912.13;;;22.59;47.09
66486;BME280;53303;47.476;8.084;2022-08-16T03:36:31;95918.19;;;22.58;46.98
66486;BME280;53303;47.476;8.084;2022-08-16T03:38:57;95907.84;;;22.53;47.17
66486;BME280;53303;47.476;8.084;2022-08-16T03:41:22;95908.09;;;22.55;47.06
66486;BME280;53303;47.476;8.084;2022-08-16T03:43:50;95910.63;;;22.53;46.79
66486;BME280;53303;47.476;8.084;2022-08-16T03:46:15;95910.13;;;22.54;47.02
66486;BME280;53303;47.476;8.084;2022-08-16T03:48:41;95910.63;;;22.53;46.92
66486;BME280;53303;47.476;8.084;2022-08-16T03:51:10;95907.09;;;22.52;47.22
66486;BME280;53303;47.476;8.084;2022-08-16T03:53:36;95901.53;;;22.52;47.03
66486;BME280;53303;47.476;8.084;2022-08-16T03:56:02;95906.59;;;22.54;47.08
66486;BME280;53303;47.476;8.084;2022-08-16T03:58:28;95903.56;;;22.52;47.03
66486;BME280;53303;47.476;8.084;2022-08-16T04:00:56;95899.78;;;22.49;47.07
66486;BME280;53303;47.476;8.084;2022-08-16T04:03:21;95907.09;;;22.52;47.23
66486;BME280;53303;47.476;8.084;2022-08-16T04:05:48;95909.88;;;22.52;47.32
66486;BME280;53303;47.476;8.084;2022-08-16T04:08:15;95902.56;;;22.49;47.30
66486;BME280;53303;47.476;8.084;2022-08-16T04:10:41;95906.81;;;22.56;47.78
66486;BME280;53303;47.476;8.084;2022-08-16T04:13:06;95905.31;;;22.55;47.81
66486;BME280;53303;47.476;8.084;2022-08-16T04:15:32;95898.25;;;22.54;47.28
66486;BME280;53303;47.476;8.084;2022-08-16T04:17:58;95907.56;;;22.56;47.33
66486;BME280;53303;47.476;8.084;2022-08-16T04:20:26;95893.50;;;22.43;47.23
66486;BME280;53303;47.476;8.084;2022-08-16T04:22:57;95913.41;;;22.53;47.23
66486;BME280;53303;47.476;8.084;2022-08-16T04:25:23;95906.34;;;22.52;47.16
66486;BME280;53303;47.476;8.084;2022-08-16T04:27:49;95910.38;;;22.51;47.07
66486;BME280;53303;47.476;8.084;2022-08-16T04:30:20;95902.03;;;22.51;47.16
66486;BME280;53303;47.476;8.084;2022-08-16T04:32:48;95900.56;;;22.44;46.99
66486;BME280;53303;47.476;8.084;2022-08-16T04:35:18;95913.69;;;22.49;47.03
66486;BME280;53303;47.476;8.084;2022-08-16T04:37:46;95912.19;;;22.48;47.22
66486;BME280;53303;47.476;8.084;2022-08-16T04:40:16;95905.38;;;22.43;47.21
66486;BME280;53303;47.476;8.084;2022-08-16T04:42:42;95912.69;;;22.47;47.44
66486;BME280;53303;47.476;8.084;2022-08-16T04:45:10;95909.41;;;22.48;47.43
66486;BME280;53303;47.476;8.084;2022-08-16T04:47:38;95916.94;;;22.59;47.42
66486;BME280;53303;47.476;8.084;2022-08-16T04:50:16;95914.16;;;22.59;47.38
66486;BME280;53303;47.476;8.084;2022-08-16T04:52:45;95920.19;;;22.63;47.51
66486;BME280;53303;47.476;8.084;2022-08-16T04:55:17;95919.19;;;22.66;47.52
66486;BME280;53303;47.476;8.084;2022-08-16T04:57:43;95909.53;;;22.67;47.29
66486;BME280;53303;47.476;8.084;2022-08-16T05:00:13;95912.06;;;22.71;47.43
66486;BME280;53303;47.476;8.084;2022-08-16T05:02:39;95917.09;;;22.72;47.46
66486;BME280;53303;47.476;8.084;2022-08-16T05:05:09;95908.25;;;22.74;47.51
66486;BME280;53303;47.476;8.084;2022-08-16T05:07:35;95900.19;;;22.70;47.39
66486;BME280;53303;47.476;8.084;2022-08-16T05:10:03;95910.75;;;22.77;47.45
66486;BME280;53303;47.476;8.084;2022-08-16T05:12:29;95901.44;;;22.75;47.68
66486;BME280;53303;47.476;8.084;2022-08-16T05:14:54;95906.22;;;22.80;47.40
66486;BME280;53303;47.476;8.084;2022-08-16T05:17:19;95909.50;;;22.78;47.37
66486;BME280;53303;47.476;8.084;2022-08-16T05:19:45;95914.28;;;22.84;47.61
66486;BME280;53303;47.476;8.084;2022-08-16T05:22:10;95906.44;;;22.82;47.59
66486;BME280;53303;47.476;8.084;2022-08-16T05:24:37;95912.50;;;22.86;47.58
66486;BME280;53303;47.476;8.084;2022-08-16T05:27:03;95906.91;;;22.86;47.36
66486;BME280;53303;47.476;8.084;2022-08-16T05:29:28;95909.94;;;22.88;47.53
66486;BME280;53303;47.476;8.084;2022-08-16T05:31:54;95902.63;;;22.85;47.44
66486;BME280;53303;47.476;8.084;2022-08-16T05:34:19;95910.19;;;22.90;47.61
66486;BME280;53303;47.476;8.084;2022-08-16T05:36:47;95909.66;;;22.92;47.60
66486;BME280;53303;47.476;8.084;2022-08-16T05:39:13;95907.13;;;22.94;47.65
66486;BME280;53303;47.476;8.084;2022-08-16T05:41:44;95906.66;;;22.90;47.66
66486;BME280;53303;47.476;8.084;2022-08-16T05:44:09;95911.44;;;22.95;47.59
66486;BME280;53303;47.476;8.084;2022-08-16T05:46:34;95918.50;;;22.96;47.64
66486;BME280;53303;47.476;8.084;2022-08-16T05:49:01;95916.75;;;22.93;47.62
66486;BME280;53303;47.476;8.084;2022-08-16T05:51:26;95906.13;;;22.91;47.73
66486;BME280;53303;47.476;8.084;2022-08-16T05:53:54;95913.47;;;22.94;47.71
66486;BME280;53303;47.476;8.084;2022-08-16T05:56:19;95922.03;;;22.96;47.68
66486;BME280;53303;47.476;8.084;2022-08-16T05:58:44;95921.28;;;22.96;47.67
66486;BME280;53303;47.476;8.084;2022-08-16T06:01:12;95934.41;;;23.01;47.66
66486;BME280;53303;47.476;8.084;2022-08-16T06:03:37;95924.31;;;22.98;47.80
66486;BME280;53303;47.476;8.084;2022-08-16T06:06:03;95926.31;;;23.03;47.77
66486;BME280;53303;47.476;8.084;2022-08-16T06:08:28;95924.28;;;23.04;47.79
66486;BME280;53303;47.476;8.084;2022-08-16T06:10:54;95923.03;;;22.99;47.79
66486;BME280;53303;47.476;8.084;2022-08-16T06:13:22;95921.00;;;23.05;47.74
66486;BME280;53303;47.476;8.084;2022-08-16T06:15:47;95926.06;;;23.07;47.71
66486;BME280;53303;47.476;8.084;2022-08-16T06:18:16;95925.28;;;23.06;47.88
66486;BME280;53303;47.476;8.084;2022-08-16T06:20:44;95936.66;;;23.08;47.91
66486;BME280;53303;47.476;8.084;2022-08-16T06:23:10;95938.94;;;23.10;47.88
66486;BME280;53303;47.476;8.084;2022-08-16T06:25:35;95928.84;;;23.07;47.75
66486;BME280;53303;47.476;8.084;2022-08-16T06:28:03;95934.38;;;23.12;47.93
66486;BME280;53303;47.476;8.084;2022-08-16T06:30:29;95931.09;;;23.08;47.92
66486;BME280;53303;47.476;8.084;2022-08-16T06:32:58;95919.22;;;23.02;47.90
66486;BME280;53303;47.476;8.084;2022-08-16T06:35:25;95931.81;;;23.14;48.02
66486;BME280;53303;47.476;8.084;2022-08-16T06:37:50;95929.78;;;23.15;48.04
66486;BME280;53303;47.476;8.084;2022-08-16T06:40:16;95928.53;;;23.16;48.08
66486;BME280;53303;47.476;8.084;2022-08-16T06:42:41;95921.25;;;23.07;48.25
66486;BME280;53303;47.476;8.084;2022-08-16T06:45:07;95939.16;;;23.17;48.21
66486;BME280;53303;47.476;8.084;2022-08-16T06:47:34;95935.09;;;23.18;48.09
66486;BME280;53303;47.476;8.084;2022-08-16T06:49:59;95931.03;;;23.19;48.05
66486;BME280;53303;47.476;8.084;2022-08-16T06:52:25;95934.56;;;23.20;47.98
66486;BME280;53303;47.476;8.084;2022-08-16T06:54:50;95933.31;;;23.21;48.07
66486;BME280;53303;47.476;8.084;2022-08-16T06:57:15;95929.00;;;23.20;48.01
66486;BME280;53303;47.476;8.084;2022-08-16T06:59:42;95919.66;;;23.17;48.12
66486;BME280;53303;47.476;8.084;2022-08-16T07:02:10;95931.28;;;23.22;47.94
66486;BME280;53303;47.476;8.084;2022-08-16T07:04:36;95932.25;;;23.24;48.05
66486;BME280;53303;47.476;8.084;2022-08-16T07:07:02;95931.50;;;23.24;47.93
66486;BME280;53303;47.476;8.084;2022-08-16T07:09:30;95934.53;;;23.26;48.02
66486;BME280;53303;47.476;8.084;2022-08-16T07:11:56;95922.69;;;23.19;48.08
66486;BME280;53303;47.476;8.084;2022-08-16T07:14:21;95937.53;;;23.28;48.02
66486;BME280;53303;47.476;8.084;2022-08-16T07:16:47;95919.63;;;23.23;48.17
66486;BME280;53303;47.476;8.084;2022-08-16T07:19:12;95925.16;;;23.29;47.95
66486;BME280;53303;47.476;8.084;2022-08-16T07:21:41;95921.38;;;23.26;47.92
66486;BME280;53303;47.476;8.084;2022-08-16T07:24:06;95925.44;;;23.25;47.96
66486;BME280;53303;47.476;8.084;2022-08-16T07:26:32;95924.41;;;23.28;47.88
66486;BME280;53303;47.476;8.084;2022-08-16T07:28:58;95924.41;;;23.28;47.94
66486;BME280;53303;47.476;8.084;2022-08-16T07:31:26;95918.06;;;23.28;47.83
66486;BME280;53303;47.476;8.084;2022-08-16T07:33:51;95921.63;;;23.28;47.76
66486;BME280;53303;47.476;8.084;2022-08-16T07:36:17;95917.06;;;23.25;47.82
66486;BME280;53303;47.476;8.084;2022-08-16T07:38:43;95923.59;;;23.33;47.84
66486;BME280;53303;47.476;8.084;2022-08-16T07:41:09;95913.72;;;23.32;48.07
66486;BME280;53303;47.476;8.084;2022-08-16T07:43:34;95921.06;;;23.35;47.94
66486;BME280;53303;47.476;8.084;2022-08-16T07:46:00;95922.31;;;23.34;47.81
66486;BME280;53303;47.476;8.084;2022-08-16T07:48:28;95923.31;;;23.37;47.85
66486;BME280;53303;47.476;8.084;2022-08-16T07:50:54;95919.75;;;23.36;47.77
66486;BME280;53303;47.476;8.084;2022-08-16T07:53:22;95930.63;;;23.40;47.89
66486;BME280;53303;47.476;8.084;2022-08-16T07:55:47;95920.28;;;23.35;47.80
66486;BME280;53303;47.476;8.084;2022-08-16T07:58:13;95884.81;;;23.41;47.71
66486;BME280;53303;47.476;8.084;2022-08-16T08:00:39;95895.47;;;23.37;46.48
66486;BME280;53303;47.476;8.084;2022-08-16T08:03:04;95908.63;;;23.36;44.11
66486;BME280;53303;47.476;8.084;2022-08-16T08:05:30;95895.53;;;23.26;41.97
66486;BME280;53303;47.476;8.084;2022-08-16T08:07:58;95907.47;;;23.21;44.26
66486;BME280;53303;47.476;8.084;2022-08-16T08:10:25;95901.44;;;23.16;47.22
66486;BME280;53303;47.476;8.084;2022-08-16T08:12:52;95912.56;;;23.16;44.59
66486;BME280;53303;47.476;8.084;2022-08-16T08:15:20;95907.56;;;23.09;47.39
66486;BME280;53303;47.476;8.084;2022-08-16T08:17:48;95905.28;;;23.08;49.04
66486;BME280;53303;47.476;8.084;2022-08-16T08:20:17;95915.19;;;23.03;45.37
66486;BME280;53303;47.476;8.084;2022-08-16T08:22:47;95912.66;;;22.99;45.98
66486;BME280;53303;47.476;8.084;2022-08-16T08:25:13;95914.69;;;22.99;49.51
66486;BME280;53303;47.476;8.084;2022-08-16T08:27:39;95923.53;;;22.97;47.23
66486;BME280;53303;47.476;8.084;2022-08-16T08:30:05;95915.47;;;22.94;44.89
66486;BME280;53303;47.476;8.084;2022-08-16T08:32:30;95920.31;;;22.88;43.65
66486;BME280;53303;47.476;8.084;2022-08-16T08:35:01;95910.50;;;22.81;47.64
66486;BME280;53303;47.476;8.084;2022-08-16T08:37:29;95917.78;;;22.90;50.75
66486;BME280;53303;47.476;8.084;2022-08-16T08:39:55;95924.09;;;22.90;47.35
66486;BME280;53303;47.476;8.084;2022-08-16T08:42:21;95922.34;;;22.87;45.12
66486;BME280;53303;47.476;8.084;2022-08-16T08:44:48;95909.50;;;22.78;43.70
66486;BME280;53303;47.476;8.084;2022-08-16T08:47:14;95927.69;;;22.79;43.30
66486;BME280;53303;47.476;8.084;2022-08-16T08:49:39;95919.38;;;22.74;43.02
66486;BME280;53303;47.476;8.084;2022-08-16T08:52:05;95926.97;;;22.73;42.62
66486;BME280;53303;47.476;8.084;2022-08-16T08:54:30;95926.75;;;22.71;42.50
66486;BME280;53303;47.476;8.084;2022-08-16T08:56:58;95930.53;;;22.68;42.45
66486;BME280;53303;47.476;8.084;2022-08-16T08:59:23;95925.50;;;22.61;42.58
66486;BME280;53303;47.476;8.084;2022-08-16T09:01:53;95926.78;;;22.60;42.44
66486;BME280;53303;47.476;8.084;2022-08-16T09:04:19;95938.16;;;22.62;42.61
66486;BME280;53303;47.476;8.084;2022-08-16T09:06:44;95935.13;;;22.60;42.43
66486;BME280;53303;47.476;8.084;2022-08-16T09:09:10;95931.09;;;22.55;42.36
66486;BME280;53303;47.476;8.084;2022-08-16T09:11:37;95932.34;;;22.60;42.23
66486;BME280;53303;47.476;8.084;2022-08-16T09:14:03;95929.03;;;22.61;44.12
66486;BME280;53303;47.476;8.084;2022-08-16T09:16:29;95924.50;;;22.64;48.45
66486;BME280;53303;47.476;8.084;2022-08-16T09:18:58;95925.72;;;22.69;45.81
66486;BME280;53303;47.476;8.084;2022-08-16T09:21:23;95911.59;;;22.61;43.93
66486;BME280;53303;47.476;8.084;2022-08-16T09:23:49;95917.66;;;22.65;47.44
66486;BME280;53303;47.476;8.084;2022-08-16T09:26:15;95919.13;;;22.72;48.10
66486;BME280;53303;47.476;8.084;2022-08-16T09:28:42;95917.88;;;22.73;45.13
66486;BME280;53303;47.476;8.084;2022-08-16T09:31:09;95919.66;;;22.70;43.70
66486;BME280;53303;47.476;8.084;2022-08-16T09:33:34;95903.75;;;22.65;47.37
66486;BME280;53303;47.476;8.084;2022-08-16T09:36:03;95908.53;;;22.70;48.21
66486;BME280;53303;47.476;8.084;2022-08-16T09:38:29;95916.31;;;22.77;45.03
66486;BME280;53303;47.476;8.084;2022-08-16T09:40:55;95914.06;;;22.76;43.88
66486;BME280;53303;47.476;8.084;2022-08-16T09:43:22;95898.41;;;22.73;43.02
66486;BME280;53303;47.476;8.084;2022-08-16T09:45:49;95911.78;;;22.74;42.67
66486;BME280;53303;47.476;8.084;2022-08-16T09:48:14;95903.00;;;22.65;42.25
66486;BME280;53303;47.476;8.084;2022-08-16T09:50:43;95912.06;;;22.71;42.49
66486;BME280;53303;47.476;8.084;2022-08-16T09:53:13;95910.56;;;22.70;42.22
66486;BME280;53303;47.476;8.084;2022-08-16T09:55:40;95906.53;;;22.65;42.35
66486;BME280;53303;47.476;8.084;2022-08-16T09:58:05;95912.31;;;22.67;42.07
66486;BME280;53303;47.476;8.084;2022-08-16T10:00:31;95907.53;;;22.68;42.15
66486;BME280;53303;47.476;8.084;2022-08-16T10:03:01;95916.41;;;22.66;42.08
66486;BME280;53303;47.476;8.084;2022-08-16T10:05:28;95907.03;;;22.63;41.90
66486;BME280;53303;47.476;8.084;2022-08-16T10:07:53;95911.06;;;22.68;42.02
66486;BME280;53303;47.476;8.084;2022-08-16T10:10:21;95916.63;;;22.68;42.07
66486;BME280;53303;47.476;8.084;2022-08-16T10:12:47;95909.81;;;22.63;41.78
66486;BME280;53303;47.476;8.084;2022-08-16T10:15:32;95913.09;;;22.68;42.08
66486;BME280;53303;47.476;8.084;2022-08-16T10:17:58;95919.41;;;22.68;41.75
66486;BME280;53303;47.476;8.084;2022-08-16T10:20:25;95914.63;;;22.63;41.75
66486;BME280;53303;47.476;8.084;2022-08-16T10:22:52;95917.66;;;22.65;41.89
66486;BME280;53303;47.476;8.084;2022-08-16T10:25:20;95912.09;;;22.65;41.77
66486;BME280;53303;47.476;8.084;2022-08-16T10:27:47;95922.94;;;22.69;41.73
66486;BME280;53303;47.476;8.084;2022-08-16T10:30:14;95924.97;;;22.68;41.76
66486;BME280;53303;47.476;8.084;2022-08-16T10:32:40;95911.09;;;22.62;41.85
66486;BME280;53303;47.476;8.084;2022-08-16T10:35:06;95887.66;;;22.47;41.80
66486;BME280;53303;47.476;8.084;2022-08-16T10:37:32;95896.19;;;22.60;41.83
66486;BME280;53303;47.476;8.084;2022-08-16T10:39:57;95900.72;;;22.63;41.78
66486;BME280;53303;47.476;8.084;2022-08-16T10:42:24;95894.69;;;22.59;41.74
66486;BME280;53303;47.476;8.084;2022-08-16T10:44:49;95893.91;;;22.64;41.71
66486;BME280;53303;47.476;8.084;2022-08-16T10:47:17;95902.47;;;22.66;41.89
66486;BME280;53303;47.476;8.084;2022-08-16T10:49:44;95893.94;;;22.58;41.96
66486;BME280;53303;47.476;8.084;2022-08-16T10:52:10;95890.63;;;22.60;41.90
66486;BME280;53303;47.476;8.084;2022-08-16T10:54:35;95893.41;;;22.60;41.71
66486;BME280;53303;47.476;8.084;2022-08-16T10:57:02;95896.69;;;22.64;42.02
66486;BME280;53303;47.476;8.084;2022-08-16T10:59:28;95896.19;;;22.66;41.84
66486;BME280;53303;47.476;8.084;2022-08-16T11:01:59;95896.19;;;22.66;41.93
66486;BME280;53303;47.476;8.084;2022-08-16T11:04:25;95899.69;;;22.66;41.90
66486;BME280;53303;47.476;8.084;2022-08-16T11:06:54;95892.13;;;22.61;41.58
66486;BME280;53303;47.476;8.084;2022-08-16T11:09:19;95905.25;;;22.66;41.68
66486;BME280;53303;47.476;8.084;2022-08-16T11:11:45;95903.00;;;22.65;41.69
66486;BME280;53303;47.476;8.084;2022-08-16T11:14:10;95891.13;;;22.64;41.67
66486;BME280;53303;47.476;8.084;2022-08-16T11:16:38;95899.47;;;22.64;41.73
66486;BME280;53303;47.476;8.084;2022-08-16T11:19:04;95887.09;;;22.59;41.72
66486;BME280;53303;47.476;8.084;2022-08-16T11:21:31;95898.19;;;22.65;41.57
66486;BME280;53303;47.476;8.084;2022-08-16T11:23:56;95897.44;;;22.65;41.59
66486;BME280;53303;47.476;8.084;2022-08-16T11:26:22;95890.09;;;22.61;41.74
66486;BME280;53303;47.476;8.084;2022-08-16T11:28:47;95896.91;;;22.66;41.93
66486;BME280;53303;47.476;8.084;2022-08-16T11:31:16;95889.09;;;22.65;41.78
66486;BME280;53303;47.476;8.084;2022-08-16T11:33:41;95892.84;;;22.67;41.71
66486;BME280;53303;47.476;8.084;2022-08-16T11:36:07;95884.50;;;22.67;41.68
66486;BME280;53303;47.476;8.084;2022-08-16T11:38:32;95883.00;;;22.66;41.68
66486;BME280;53303;47.476;8.084;2022-08-16T11:40:59;95886.78;;;22.69;41.63
66486;BME280;53303;47.476;8.084;2022-08-16T11:43:31;95873.38;;;22.67;41.61
66486;BME280;53303;47.476;8.084;2022-08-16T11:46:02;95870.88;;;22.69;41.61
66486;BME280;53303;47.476;8.084;2022-08-16T11:48:29;95863.03;;;22.68;41.82
66486;BME280;53303;47.476;8.084;2022-08-16T11:50:57;95866.31;;;22.66;41.65
66486;BME280;53303;47.476;8.084;2022-08-16T11:53:23;95859.25;;;22.65;41.83
66486;BME280;53303;47.476;8.084;2022-08-16T11:55:50;95870.88;;;22.69;41.79
66486;BME280;53303;47.476;8.084;2022-08-16T11:58:17;95862.53;;;22.69;41.74
66486;BME280;53303;47.476;8.084;2022-08-16T12:00:44;95855.19;;;22.66;41.78
66486;BME280;53303;47.476;8.084;2022-08-16T12:03:11;95863.50;;;22.72;41.68
66486;BME280;53303;47.476;8.084;2022-08-16T12:05:38;95861.47;;;22.72;41.69
66486;BME280;53303;47.476;8.084;2022-08-16T12:08:06;95851.91;;;22.68;41.94
66486;BME280;53303;47.476;8.084;2022-08-16T12:10:36;95860.72;;;22.72;41.84
66486;BME280;53303;47.476;8.084;2022-08-16T12:13:06;95852.16;;;22.70;41.55
66486;BME280;53303;47.476;8.084;2022-08-16T12:15:32;95844.34;;;22.62;41.70
66486;BME280;53303;47.476;8.084;2022-08-16T12:17:58;95849.13;;;22.68;41.81
66486;BME280;53303;47.476;8.084;2022-08-16T12:20:27;95868.78;;;22.75;41.90
66486;BME280;53303;47.476;8.084;2022-08-16T12:22:54;95869.31;;;22.74;41.95
66486;BME280;53303;47.476;8.084;2022-08-16T12:25:21;95861.97;;;22.76;41.89
66486;BME280;53303;47.476;8.084;2022-08-16T12:27:48;95850.34;;;22.72;41.78
66486;BME280;53303;47.476;8.084;2022-08-16T12:30:19;95854.94;;;22.70;41.95
66486;BME280;53303;47.476;8.084;2022-08-16T12:32:44;95857.66;;;22.75;42.01
66486;BME280;53303;47.476;8.084;2022-08-16T12:35:15;95853.09;;;22.78;41.89
66486;BME280;53303;47.476;8.084;2022-08-16T12:37:42;95850.84;;;22.76;41.58
66486;BME280;53303;47.476;8.084;2022-08-16T12:40:10;95846.25;;;22.79;41.82
66486;BME280;53303;47.476;8.084;2022-08-16T12:42:36;95844.75;;;22.78;41.96
66486;BME280;53303;47.476;8.084;2022-08-16T12:45:04;95847.28;;;22.76;41.85
66486;BME280;53303;47.476;8.084;2022-08-16T12:47:30;95837.22;;;22.73;41.83
66486;BME280;53303;47.476;8.084;2022-08-16T12:50:15;95836.94;;;22.76;41.90
66486;BME280;53303;47.476;8.084;2022-08-16T12:52:43;95836.94;;;22.76;41.84
66486;BME280;53303;47.476;8.084;2022-08-16T12:55:08;95836.91;;;22.82;41.88
66486;BME280;53303;47.476;8.084;2022-08-16T12:57:36;95831.31;;;22.82;41.91
66486;BME280;53303;47.476;8.084;2022-08-16T13:00:03;95822.75;;;22.80;41.84
66486;BME280;53303;47.476;8.084;2022-08-16T13:02:29;95831.06;;;22.86;41.77
66486;BME280;53303;47.476;8.084;2022-08-16T13:04:54;95838.09;;;22.87;41.81